Time;durP1;ratioP1;P1;durP2;ratioP2;P2;SDS_P1;SDS_P2;PMS_P1;PMS_P2;Temp;Humidity;BMP_temperature;BMP_pressure;BME280_temperature;BME280_humidity;BME280_pressure;Samples;Min_cycle;Max_cycle;Signal;HPM_P1;HPM_P2
2024/01/14 00:01:01;;;;;;;29.97;10.10;;;-1.50;99.90;;;;;;4996990;28;20834;-64
2024/01/14 00:03:28;;;;;;;68.37;26.60;;;-1.50;99.90;;;;;;4982421;28;20498;-65
2024/01/14 00:05:56;;;;;;;36.63;17.67;;;-1.70;99.90;;;;;;5006982;28;20491;-65
2024/01/14 00:08:23;;;;;;;77.03;26.63;;;-1.70;99.90;;;;;;4956685;28;20841;-64
2024/01/14 00:10:50;;;;;;;91.73;29.80;;;-1.70;99.90;;;;;;4995660;28;20555;-64
2024/01/14 00:13:19;;;;;;;32.40;14.23;;;-1.60;99.90;;;;;;4987353;28;20476;-65
2024/01/14 00:15:46;;;;;;;87.60;33.97;;;-1.70;99.90;;;;;;4974285;28;20470;-64
2024/01/14 00:18:13;;;;;;;54.57;20.90;;;-1.70;99.90;;;;;;5006384;28;20595;-64
2024/01/14 00:20:41;;;;;;;100.43;36.27;;;-1.80;99.90;;;;;;4984890;28;20606;-64
2024/01/14 00:23:08;;;;;;;70.47;28.87;;;-1.70;99.90;;;;;;4992541;28;20903;-64
2024/01/14 00:25:35;;;;;;;69.43;17.20;;;-1.70;99.90;;;;;;5000887;28;20488;-65
2024/01/14 00:28:03;;;;;;;55.87;19.90;;;-1.60;99.90;;;;;;4993809;28;20477;-64
2024/01/14 00:30:32;;;;;;;47.50;17.30;;;-1.60;99.90;;;;;;4980465;28;20952;-65
2024/01/14 00:32:59;;;;;;;57.17;15.30;;;-1.60;99.90;;;;;;4978370;28;20891;-64
2024/01/14 00:35:26;;;;;;;57.83;20.30;;;-1.60;99.90;;;;;;4992169;28;20537;-64
2024/01/14 00:37:54;;;;;;;69.67;24.00;;;-1.70;99.90;;;;;;4981241;28;20907;-65
2024/01/14 00:40:21;;;;;;;54.93;16.47;;;-1.60;99.90;;;;;;4985553;28;20477;-65
2024/01/14 00:42:48;;;;;;;68.67;22.83;;;-1.60;99.90;;;;;;5005538;28;20836;-65
2024/01/14 00:45:16;;;;;;;40.30;12.90;;;-1.70;99.90;;;;;;4993094;28;20723;-66
2024/01/14 00:47:44;;;;;;;37.40;16.47;;;-1.70;99.90;;;;;;5005689;28;20468;-64
2024/01/14 00:50:11;;;;;;;54.93;18.87;;;-1.70;99.90;;;;;;4994537;28;20905;-64
2024/01/14 00:52:38;;;;;;;60.17;17.70;;;-1.50;99.90;;;;;;5004459;28;20883;-65
2024/01/14 00:55:08;;;;;;;73.07;26.30;;;-1.50;99.90;;;;;;4974858;28;20854;-64
2024/01/14 00:57:35;;;;;;;58.33;15.80;;;-1.50;99.90;;;;;;4978462;28;20729;-65
2024/01/14 01:00:04;;;;;;;53.30;15.17;;;-1.50;99.90;;;;;;4980989;28;20595;-65
2024/01/14 01:02:30;;;;;;;74.50;23.07;;;-1.70;99.90;;;;;;4980216;28;20480;-65
2024/01/14 01:04:59;;;;;;;98.57;32.63;;;-1.70;99.90;;;;;;5014150;28;20842;-64
2024/01/14 01:07:26;;;;;;;80.53;29.40;;;-1.90;99.90;;;;;;4973487;28;20492;-64
2024/01/14 01:09:53;;;;;;;31.17;13.13;;;-1.80;99.90;;;;;;5009001;28;20491;-64
2024/01/14 01:12:20;;;;;;;58.13;16.83;;;-1.70;99.90;;;;;;5013434;28;20894;-64
2024/01/14 01:14:47;;;;;;;61.53;20.00;;;-1.50;99.90;;;;;;5007838;28;20504;-65
2024/01/14 01:17:14;;;;;;;97.27;28.43;;;-1.60;99.90;;;;;;5006463;28;20488;-63
2024/01/14 01:19:41;;;;;;;35.93;15.50;;;-1.60;99.90;;;;;;4987335;28;20483;-63
2024/01/14 01:22:09;;;;;;;71.47;25.17;;;-1.50;99.90;;;;;;5013680;28;20500;-63
2024/01/14 01:24:38;;;;;;;50.83;18.47;;;-1.50;99.90;;;;;;4998073;28;20588;-63
2024/01/14 01:27:05;;;;;;;67.50;23.90;;;-1.60;99.90;;;;;;4997825;28;20488;-65
2024/01/14 01:29:32;;;;;;;36.63;15.37;;;-1.50;99.90;;;;;;5004583;28;21686;-65
2024/01/14 01:31:59;;;;;;;53.30;21.03;;;-1.50;99.90;;;;;;4993647;28;20489;-64
2024/01/14 01:34:26;;;;;;;49.33;18.53;;;-1.40;99.90;;;;;;4981524;28;20485;-65
2024/01/14 01:36:53;;;;;;;78.77;23.80;;;-1.30;99.90;;;;;;5007048;28;20888;-65
2024/01/14 01:39:21;;;;;;;43.87;12.77;;;-1.20;99.90;;;;;;5012181;28;20492;-64
2024/01/14 01:41:49;;;;;;;68.07;20.77;;;-1.40;99.90;;;;;;4982689;28;20883;-64
2024/01/14 01:44:15;;;;;;;43.33;15.90;;;-1.40;99.90;;;;;;5007211;28;20535;-65
2024/01/14 01:46:43;;;;;;;61.13;21.77;;;-1.40;99.90;;;;;;5001710;28;20627;-65
2024/01/14 01:49:11;;;;;;;40.20;17.20;;;-1.30;99.90;;;;;;5001082;28;20484;-65
2024/01/14 01:51:40;;;;;;;60.87;19.20;;;-1.20;99.90;;;;;;4994028;28;20485;-65
2024/01/14 01:54:08;;;;;;;60.90;18.10;;;-1.10;99.90;;;;;;5015723;28;20538;-65
2024/01/14 01:56:39;;;;;;;55.90;19.97;;;-1.10;99.90;;;;;;5013979;28;20584;-65
2024/01/14 01:59:07;;;;;;;53.30;18.30;;;-1.10;99.90;;;;;;4991663;28;20862;-64
2024/01/14 02:01:35;;;;;;;38.27;14.90;;;-1.10;99.90;;;;;;4995521;28;20488;-65
2024/01/14 02:04:04;;;;;;;45.13;19.43;;;-1.20;99.90;;;;;;4987691;28;20473;-65
2024/01/14 02:06:33;;;;;;;57.43;23.87;;;-1.00;99.90;;;;;;4982015;28;20478;-64
2024/01/14 02:09:00;;;;;;;60.20;19.43;;;-1.30;99.90;;;;;;5009775;28;20476;-65
2024/01/14 02:11:28;;;;;;;48.03;17.70;;;-1.30;99.90;;;;;;4971718;28;20562;-65
2024/01/14 02:13:57;;;;;;;35.63;13.10;;;-1.40;99.90;;;;;;4988044;28;20579;-65
2024/01/14 02:16:24;;;;;;;61.03;23.00;;;-1.50;99.90;;;;;;5001372;28;20477;-65
2024/01/14 02:18:51;;;;;;;58.47;19.00;;;-1.50;99.90;;;;;;4975942;28;20496;-65
2024/01/14 02:21:22;;;;;;;76.40;16.23;;;-1.40;99.90;;;;;;4996069;28;20900;-65
2024/01/14 02:23:56;;;;;;;35.03;15.13;;;-1.40;99.90;;;;;;5001465;28;21219;-65
2024/01/14 02:26:24;;;;;;;39.70;13.80;;;-1.30;99.90;;;;;;4994181;28;20845;-64
2024/01/14 02:28:51;;;;;;;51.90;16.60;;;-1.20;99.90;;;;;;5009143;28;20484;-63
2024/01/14 02:31:19;;;;;;;71.33;19.20;;;-1.00;99.90;;;;;;5012022;28;20555;-63
2024/01/14 02:33:46;;;;;;;44.40;17.53;;;-1.00;99.90;;;;;;5008473;28;20480;-63
2024/01/14 02:36:14;;;;;;;48.43;17.83;;;-0.90;99.90;;;;;;4984365;28;20480;-63
2024/01/14 02:38:41;;;;;;;43.63;16.27;;;-0.90;99.90;;;;;;4962384;28;20603;-65
2024/01/14 02:41:08;;;;;;;37.07;16.10;;;-0.90;99.90;;;;;;5012515;28;20875;-65
2024/01/14 02:43:37;;;;;;;44.57;16.90;;;-1.10;99.90;;;;;;5007376;28;20476;-65
2024/01/14 02:46:04;;;;;;;51.23;18.20;;;-1.10;99.90;;;;;;5002921;28;20852;-65
2024/01/14 02:48:31;;;;;;;47.03;17.87;;;;;;;;;;5001739;28;20488;-65
2024/01/14 02:50:58;;;;;;;52.20;18.10;;;-0.80;99.90;;;;;;4997146;28;20479;-64
2024/01/14 02:53:25;;;;;;;60.47;18.53;;;-0.80;99.90;;;;;;4977541;28;21020;-65
2024/01/14 02:55:52;;;;;;;44.67;15.60;;;-0.70;99.90;;;;;;5009347;28;21221;-65
2024/01/14 02:58:19;;;;;;;60.40;22.17;;;-0.80;99.90;;;;;;4991878;28;20859;-65
2024/01/14 03:00:48;;;;;;;54.93;20.00;;;-0.90;99.90;;;;;;5011881;28;20477;-65
2024/01/14 03:03:14;;;;;;;43.60;15.63;;;-1.00;99.90;;;;;;4999515;28;20473;-67
2024/01/14 03:05:41;;;;;;;34.30;12.20;;;-1.10;99.90;;;;;;4972793;28;20475;-65
2024/01/14 03:08:09;;;;;;;55.33;20.37;;;-1.00;99.90;;;;;;5000582;28;20488;-65
2024/01/14 03:10:35;;;;;;;58.30;21.83;;;-1.00;99.90;;;;;;4996189;28;20930;-65
2024/01/14 03:13:02;;;;;;;43.67;17.63;;;-1.10;99.90;;;;;;4999737;28;20482;-65
2024/01/14 03:15:29;;;;;;;61.90;22.37;;;-1.20;99.90;;;;;;4983008;28;20550;-65
2024/01/14 03:17:57;;;;;;;48.10;17.87;;;-1.20;99.90;;;;;;4997052;28;21095;-64
2024/01/14 03:20:24;;;;;;;61.10;21.13;;;-1.20;99.90;;;;;;5017212;28;20480;-65
2024/01/14 03:22:51;;;;;;;30.43;11.70;;;-1.30;99.90;;;;;;5003476;28;20505;-65
2024/01/14 03:25:18;;;;;;;60.03;20.17;;;-1.40;99.90;;;;;;4969824;28;20563;-65
2024/01/14 03:27:45;;;;;;;44.50;16.40;;;-1.40;99.90;;;;;;4975980;28;20497;-64
2024/01/14 03:30:13;;;;;;;79.80;20.50;;;-1.50;99.90;;;;;;5001190;28;20615;-65
2024/01/14 03:32:39;;;;;;;51.10;18.40;;;-1.40;99.90;;;;;;5022129;28;20541;-65
2024/01/14 03:35:08;;;;;;;59.80;20.33;;;-1.20;99.90;;;;;;4986498;28;20576;-65
2024/01/14 03:37:35;;;;;;;65.80;21.83;;;-1.10;99.90;;;;;;5024282;28;20492;-65
2024/01/14 03:40:03;;;;;;;58.57;20.90;;;-1.10;99.90;;;;;;5016189;28;20484;-65
2024/01/14 03:42:30;;;;;;;62.97;21.40;;;-1.20;99.90;;;;;;4993541;28;20511;-65
2024/01/14 03:44:57;;;;;;;58.77;22.03;;;-1.20;99.90;;;;;;5027443;28;20569;-65
2024/01/14 03:47:24;;;;;;;38.60;13.97;;;-1.20;99.90;;;;;;4989399;28;20476;-65
2024/01/14 03:49:51;;;;;;;67.73;20.00;;;-1.30;99.90;;;;;;4977922;28;20484;-65
2024/01/14 03:52:19;;;;;;;50.40;18.50;;;-1.20;99.90;;;;;;5018373;28;20542;-65
2024/01/14 03:54:46;;;;;;;61.27;20.87;;;-1.20;99.90;;;;;;4947213;28;20493;-65
2024/01/14 03:57:13;;;;;;;51.40;19.57;;;-1.10;99.90;;;;;;5024511;28;20537;-65
2024/01/14 03:59:40;;;;;;;84.03;27.60;;;-1.20;99.90;;;;;;4997751;28;20492;-63
2024/01/14 04:02:07;;;;;;;65.50;25.13;;;-1.20;99.90;;;;;;5011115;28;20489;-63
2024/01/14 04:04:33;;;;;;;82.93;23.70;;;-1.20;99.90;;;;;;4973153;28;20616;-63
2024/01/14 04:07:00;;;;;;;56.10;19.77;;;-1.10;99.90;;;;;;5001656;28;20490;-63
2024/01/14 04:09:28;;;;;;;58.00;17.97;;;-1.20;99.90;;;;;;4978148;28;20750;-63
2024/01/14 04:11:55;;;;;;;85.53;22.77;;;-1.20;99.90;;;;;;5003627;28;20477;-63
2024/01/14 04:14:22;;;;;;;51.53;18.27;;;-1.10;99.90;;;;;;5004329;28;20516;-63
2024/01/14 04:16:48;;;;;;;49.60;20.10;;;-1.20;99.90;;;;;;4998586;28;20533;-63
2024/01/14 04:19:15;;;;;;;57.47;19.40;;;-1.20;99.90;;;;;;4970240;28;20985;-63
2024/01/14 04:21:42;;;;;;;50.97;16.43;;;-1.20;99.90;;;;;;5011551;28;20481;-63
2024/01/14 04:24:09;;;;;;;57.77;20.30;;;-1.20;99.90;;;;;;5010237;28;20775;-63
2024/01/14 04:26:37;;;;;;;59.80;20.63;;;-1.20;99.90;;;;;;5022292;28;20538;-63
2024/01/14 04:29:04;;;;;;;55.13;21.70;;;-1.10;99.90;;;;;;5021872;28;20487;-63
2024/01/14 04:31:32;;;;;;;72.10;24.27;;;-1.10;99.90;;;;;;5017105;28;20507;-63
2024/01/14 04:34:02;;;;;;;88.07;30.87;;;;;;;;;;4991537;28;20554;-63
2024/01/14 04:36:29;;;;;;;63.90;22.87;;;-1.40;99.90;;;;;;5002601;28;20480;-63
2024/01/14 04:38:56;;;;;;;93.23;26.03;;;-1.50;99.90;;;;;;4971040;28;20543;-65
2024/01/14 04:41:24;;;;;;;56.73;19.50;;;-1.50;99.90;;;;;;5023338;28;20566;-65
2024/01/14 04:43:52;;;;;;;56.43;23.60;;;-1.50;99.90;;;;;;4973667;28;20482;-65
2024/01/14 04:46:19;;;;;;;77.67;26.80;;;-1.60;99.90;;;;;;5031126;28;20511;-65
2024/01/14 04:48:46;;;;;;;51.93;16.90;;;-1.50;99.90;;;;;;4963522;28;20480;-65
2024/01/14 04:51:13;;;;;;;55.20;19.23;;;-1.60;99.90;;;;;;5016499;28;20484;-64
2024/01/14 04:53:40;;;;;;;36.70;12.00;;;-1.50;99.90;;;;;;5011525;28;20859;-66
2024/01/14 04:56:08;;;;;;;34.63;16.17;;;-1.50;99.90;;;;;;5020335;28;20706;-65
2024/01/14 04:58:36;;;;;;;50.63;15.40;;;-1.50;99.90;;;;;;4980773;28;20479;-65
2024/01/14 05:01:04;;;;;;;55.07;18.80;;;-1.60;99.90;;;;;;4957167;28;20489;-64
2024/01/14 05:03:31;;;;;;;47.13;16.00;;;-1.50;99.90;;;;;;5010709;28;20482;-65
2024/01/14 05:05:58;;;;;;;69.07;24.57;;;-1.60;99.90;;;;;;4991992;28;20772;-65
2024/01/14 05:08:25;;;;;;;68.53;22.60;;;-1.50;99.90;;;;;;5027219;28;20477;-64
2024/01/14 05:10:52;;;;;;;65.83;25.97;;;-1.50;99.90;;;;;;4990184;28;21319;-63
2024/01/14 05:13:19;;;;;;;89.67;22.77;;;-1.60;99.90;;;;;;5010423;28;20550;-63
2024/01/14 05:15:46;;;;;;;46.50;14.50;;;-1.60;99.90;;;;;;5027395;28;20541;-63
2024/01/14 05:18:14;;;;;;;64.97;23.07;;;-1.60;99.90;;;;;;4967402;28;20537;-63
2024/01/14 05:20:41;;;;;;;56.27;20.43;;;-1.50;99.90;;;;;;5019658;28;20499;-63
2024/01/14 05:23:08;;;;;;;32.00;14.33;;;-1.50;99.90;;;;;;4990132;28;20496;-63
2024/01/14 05:25:35;;;;;;;38.40;15.83;;;-1.50;99.90;;;;;;5023584;28;20546;-63
2024/01/14 05:28:02;;;;;;;49.03;13.60;;;-1.60;99.90;;;;;;5006844;28;20497;-63
2024/01/14 05:30:29;;;;;;;29.83;12.10;;;-1.70;99.90;;;;;;5010476;28;20503;-63
2024/01/14 05:32:55;;;;;;;44.17;12.80;;;-1.70;99.90;;;;;;4995810;28;20485;-63
2024/01/14 05:35:24;;;;;;;49.33;17.83;;;-1.80;99.90;;;;;;4995772;28;22292;-63
2024/01/14 05:37:51;;;;;;;65.03;21.80;;;-1.90;99.90;;;;;;5031820;28;20541;-63
2024/01/14 05:40:19;;;;;;;57.30;20.90;;;-2.00;99.90;;;;;;4983704;28;20539;-63
2024/01/14 05:42:46;;;;;;;90.27;31.40;;;-2.00;99.90;;;;;;5022676;28;20888;-62
2024/01/14 05:45:13;;;;;;;38.30;15.13;;;-2.10;99.90;;;;;;4962642;28;20647;-63
2024/01/14 05:47:40;;;;;;;64.40;14.87;;;-2.20;99.90;;;;;;5014928;28;20477;-63
2024/01/14 05:50:08;;;;;;;56.13;16.33;;;-2.10;99.90;;;;;;5025257;28;20502;-64
2024/01/14 05:52:36;;;;;;;64.93;21.50;;;-2.20;99.90;;;;;;4985395;28;20488;-64
2024/01/14 05:55:03;;;;;;;32.77;12.30;;;;;;;;;;4999111;28;20526;-64
2024/01/14 05:57:31;;;;;;;47.63;16.87;;;-2.20;99.90;;;;;;5012071;28;21000;-65
2024/01/14 05:59:58;;;;;;;87.47;29.87;;;-2.20;99.90;;;;;;5033127;28;20479;-64
2024/01/14 06:02:25;;;;;;;81.47;27.70;;;-2.10;99.90;;;;;;5022640;28;20480;-64
2024/01/14 06:04:52;;;;;;;37.77;13.43;;;-2.10;99.90;;;;;;4993775;28;20499;-65
2024/01/14 06:07:18;;;;;;;36.43;14.63;;;-2.20;99.90;;;;;;5014150;28;20491;-65
2024/01/14 06:09:47;;;;;;;41.67;13.20;;;-2.20;99.90;;;;;;4995007;28;20540;-64
2024/01/14 06:12:15;;;;;;;31.90;12.73;;;-2.20;99.90;;;;;;4996001;28;20939;-64
2024/01/14 06:14:42;;;;;;;94.37;32.77;;;-2.20;99.90;;;;;;4997522;28;20522;-64
2024/01/14 06:17:09;;;;;;;53.93;18.40;;;-2.30;99.90;;;;;;5022646;28;20546;-64
2024/01/14 06:19:36;;;;;;;29.73;10.77;;;-2.20;99.90;;;;;;5005449;28;20538;-63
2024/01/14 06:22:06;;;;;;;85.30;26.93;;;-2.40;99.90;;;;;;4996708;28;20473;-63
2024/01/14 06:24:33;;;;;;;56.00;22.07;;;-2.50;99.90;;;;;;4990412;28;20506;-63
2024/01/14 06:27:02;;;;;;;29.40;10.10;;;-2.30;99.90;;;;;;5016821;28;20818;-63
2024/01/14 06:29:29;;;;;;;33.47;9.83;;;-2.20;99.90;;;;;;5013077;28;20471;-63
2024/01/14 06:31:58;;;;;;;61.47;20.23;;;-2.20;99.90;;;;;;4997621;28;20535;-62
2024/01/14 06:34:25;;;;;;;43.60;15.00;;;-2.20;99.90;;;;;;5006569;28;21252;-62
2024/01/14 06:36:53;;;;;;;121.40;40.40;;;-2.40;99.90;;;;;;4991720;28;20927;-63
2024/01/14 06:39:19;;;;;;;80.67;29.10;;;-2.30;99.90;;;;;;4985506;28;20973;-63
2024/01/14 06:41:46;;;;;;;53.60;15.80;;;-2.30;99.90;;;;;;4994390;28;20484;-63
2024/01/14 06:44:15;;;;;;;61.50;19.90;;;-2.40;99.90;;;;;;4994196;28;20490;-63
2024/01/14 06:46:44;;;;;;;94.67;29.30;;;-2.40;99.90;;;;;;5021568;28;20494;-63
2024/01/14 06:49:11;;;;;;;80.40;23.50;;;-2.40;99.90;;;;;;4988583;28;20485;-63
2024/01/14 06:51:43;;;;;;;31.20;13.57;;;-2.40;99.90;;;;;;5021387;28;20485;-63
2024/01/14 06:54:10;;;;;;;62.43;23.90;;;-2.40;99.90;;;;;;4998301;28;20557;-63
2024/01/14 06:56:44;;;;;;;75.83;20.53;;;-2.50;99.90;;;;;;4993204;28;20549;-63
2024/01/14 06:59:14;;;;;;;90.63;23.53;;;-2.60;99.90;;;;;;4962249;28;20689;-63
2024/01/14 07:01:41;;;;;;;84.07;25.03;;;-2.60;99.90;;;;;;5002567;28;20484;-65
2024/01/14 07:04:08;;;;;;;37.77;10.37;;;-2.50;99.90;;;;;;5013062;28;20487;-64
2024/01/14 07:06:35;;;;;;;94.17;26.23;;;-2.40;99.90;;;;;;5016722;28;20538;-65
2024/01/14 07:09:02;;;;;;;80.83;25.30;;;-2.50;99.90;;;;;;5020965;28;20553;-64
2024/01/14 07:11:29;;;;;;;76.83;22.33;;;-2.40;99.90;;;;;;5000758;28;20489;-64
2024/01/14 07:13:56;;;;;;;36.87;11.63;;;-2.50;99.90;;;;;;4991509;28;20491;-64
2024/01/14 07:16:24;;;;;;;50.10;17.70;;;-2.40;99.90;;;;;;5013110;28;20912;-64
2024/01/14 07:18:51;;;;;;;68.57;24.37;;;-2.40;99.90;;;;;;5018712;28;20537;-64
2024/01/14 07:21:22;;;;;;;52.93;16.70;;;-2.40;99.90;;;;;;5005622;28;20477;-64
2024/01/14 07:23:49;;;;;;;97.57;27.87;;;-2.40;99.90;;;;;;4972851;28;20495;-63
2024/01/14 07:26:17;;;;;;;101.80;33.13;;;-2.50;99.90;;;;;;4994854;28;20484;-64
2024/01/14 07:28:44;;;;;;;57.73;17.00;;;-2.50;99.90;;;;;;4997837;28;20479;-64
2024/01/14 07:31:12;;;;;;;85.43;23.83;;;;;;;;;;5021334;28;20538;-64
2024/01/14 07:33:41;;;;;;;65.10;22.80;;;-2.30;99.90;;;;;;4989433;28;20497;-64
2024/01/14 07:36:08;;;;;;;48.87;18.47;;;-2.30;99.90;;;;;;5003132;28;20491;-64
2024/01/14 07:38:35;;;;;;;50.33;14.73;;;-2.30;99.90;;;;;;4993187;28;20907;-64
2024/01/14 07:41:02;;;;;;;90.53;29.87;;;-2.40;99.90;;;;;;5008911;28;20491;-64
2024/01/14 07:43:29;;;;;;;75.33;24.63;;;-2.40;99.90;;;;;;5014924;28;20539;-63
2024/01/14 07:45:55;;;;;;;36.97;11.47;;;-2.40;99.90;;;;;;5016383;28;20487;-63
2024/01/14 07:48:26;;;;;;;36.37;13.40;;;-2.30;99.90;;;;;;4965338;28;21018;-64
2024/01/14 07:50:54;;;;;;;29.80;11.80;;;-2.30;99.90;;;;;;5002731;28;20484;-64
2024/01/14 07:53:22;;;;;;;67.40;23.67;;;-2.30;99.90;;;;;;5014584;28;21011;-64
2024/01/14 07:55:49;;;;;;;25.00;12.10;;;-2.30;99.90;;;;;;5019058;28;20484;-64
2024/01/14 07:58:16;;;;;;;24.73;10.33;;;-2.20;99.90;;;;;;5021718;28;20587;-64
2024/01/14 08:00:43;;;;;;;45.50;15.07;;;-2.10;99.90;;;;;;4986931;28;20490;-64
2024/01/14 08:03:10;;;;;;;42.90;15.60;;;-2.10;99.90;;;;;;5001205;28;20535;-64
2024/01/14 08:05:36;;;;;;;54.97;15.00;;;-2.10;99.90;;;;;;4996979;28;20479;-63
2024/01/14 08:08:05;;;;;;;44.30;17.10;;;-2.20;99.90;;;;;;5024835;28;20499;-64
2024/01/14 08:10:33;;;;;;;48.20;14.60;;;-2.10;99.90;;;;;;4977524;28;20674;-62
2024/01/14 08:13:00;;;;;;;78.53;22.93;;;-2.20;99.90;;;;;;5011813;28;20537;-62
2024/01/14 08:15:27;;;;;;;40.63;14.93;;;-2.20;99.90;;;;;;5007984;28;20490;-62
2024/01/14 08:17:54;;;;;;;16.23;9.43;;;-2.20;99.90;;;;;;5020020;28;20481;-62
2024/01/14 08:20:21;;;;;;;58.23;18.50;;;-2.30;99.90;;;;;;5014241;28;21140;-62
2024/01/14 08:22:48;;;;;;;54.13;15.67;;;-2.30;99.90;;;;;;4994874;28;20488;-62
2024/01/14 08:25:16;;;;;;;43.87;16.60;;;-2.20;99.90;;;;;;4988510;28;20719;-62
2024/01/14 08:27:43;;;;;;;33.83;11.77;;;-2.30;99.90;;;;;;4990587;28;20891;-62
2024/01/14 08:30:12;;;;;;;36.17;15.27;;;-2.30;99.90;;;;;;5000772;28;20503;-62
2024/01/14 08:32:40;;;;;;;43.03;16.37;;;-2.30;99.90;;;;;;5000594;28;20468;-63
2024/01/14 08:35:07;;;;;;;34.33;13.60;;;-2.20;99.90;;;;;;4977010;28;20902;-63
2024/01/14 08:37:34;;;;;;;64.77;22.07;;;-2.20;99.90;;;;;;5012049;28;20475;-63
2024/01/14 08:40:01;;;;;;;37.83;10.63;;;;;;;;;;4994569;28;20497;-62
2024/01/14 08:42:30;;;;;;;46.67;10.00;;;-2.00;99.90;;;;;;5023824;28;20480;-62
2024/01/14 08:44:57;;;;;;;28.60;11.13;;;-2.10;99.90;;;;;;4998469;28;20493;-63
2024/01/14 08:47:28;;;;;;;19.07;8.83;;;-2.10;99.90;;;;;;5013125;28;20506;-62
2024/01/14 08:49:55;;;;;;;31.50;8.80;;;-2.20;99.90;;;;;;5012473;28;20792;-62
2024/01/14 08:52:22;;;;;;;38.43;16.80;;;-2.10;99.90;;;;;;5003425;28;20497;-63
2024/01/14 08:54:49;;;;;;;20.07;9.30;;;-2.10;99.90;;;;;;5017030;28;20757;-63
2024/01/14 08:57:16;;;;;;;18.40;6.07;;;-2.10;99.90;;;;;;4994740;28;20600;-63
2024/01/14 08:59:44;;;;;;;59.20;22.47;;;-2.10;99.90;;;;;;5011927;28;20480;-62
2024/01/14 09:02:11;;;;;;;28.70;11.90;;;-2.20;99.90;;;;;;5021240;28;20484;-63
2024/01/14 09:04:38;;;;;;;63.87;23.90;;;-2.10;99.90;;;;;;5018501;28;20485;-63
2024/01/14 09:07:06;;;;;;;71.47;24.90;;;-2.10;99.90;;;;;;4980509;28;20886;-63
2024/01/14 09:09:33;;;;;;;29.57;11.60;;;-2.20;99.90;;;;;;4991481;28;20473;-63
2024/01/14 09:12:00;;;;;;;60.83;16.13;;;-2.20;99.90;;;;;;5006897;28;20916;-63
2024/01/14 09:14:28;;;;;;;42.47;12.00;;;-2.10;99.90;;;;;;4995763;28;20473;-63
2024/01/14 09:16:56;;;;;;;74.23;25.67;;;-2.10;99.90;;;;;;5012405;28;20568;-63
2024/01/14 09:19:23;;;;;;;72.60;28.50;;;-2.10;99.90;;;;;;4997703;28;20837;-63
2024/01/14 09:21:51;;;;;;;42.70;15.10;;;-2.00;99.90;;;;;;5011980;28;20520;-65
2024/01/14 09:24:21;;;;;;;36.27;15.97;;;-2.10;99.90;;;;;;5013308;28;20564;-65
2024/01/14 09:26:49;;;;;;;26.60;11.27;;;-2.10;99.90;;;;;;5007444;28;20479;-65
2024/01/14 09:29:16;;;;;;;66.07;21.60;;;-2.20;99.90;;;;;;4981527;28;20523;-64
2024/01/14 09:31:43;;;;;;;36.37;15.40;;;-2.30;99.90;;;;;;4986784;28;20477;-64
2024/01/14 09:34:12;;;;;;;76.23;26.53;;;-2.40;99.90;;;;;;5017141;28;22633;-64
2024/01/14 09:36:41;;;;;;;49.87;19.97;;;-2.30;99.90;;;;;;4968204;28;20572;-64
2024/01/14 09:39:10;;;;;;;68.13;24.70;;;-2.20;99.90;;;;;;5018535;28;20843;-64
2024/01/14 09:41:41;;;;;;;49.83;18.37;;;;;;;;;;5025650;28;21027;-64
2024/01/14 09:44:14;;;;;;;11.53;7.23;;;-2.10;99.90;;;;;;5022977;28;21131;-65
2024/01/14 09:46:42;;;;;;;76.70;30.37;;;-2.10;99.90;;;;;;5022148;28;20888;-64
2024/01/14 09:49:11;;;;;;;81.63;26.67;;;-2.20;99.90;;;;;;5009399;28;20478;-64
2024/01/14 09:51:39;;;;;;;49.97;18.53;;;-2.30;99.90;;;;;;5024019;28;20484;-65
2024/01/14 09:54:06;;;;;;;38.73;15.27;;;-2.30;99.90;;;;;;5015387;28;20570;-64
2024/01/14 09:56:35;;;;;;;37.83;9.60;;;-2.20;99.90;;;;;;5021732;28;20489;-64
2024/01/14 09:59:03;;;;;;;69.20;23.00;;;-2.20;99.90;;;;;;4990807;28;20522;-65
2024/01/14 10:01:32;;;;;;;48.60;16.27;;;-2.30;99.90;;;;;;5014655;28;20527;-65
2024/01/14 10:04:01;;;;;;;48.57;12.37;;;-2.00;99.90;;;;;;5025102;28;20533;-64
2024/01/14 10:06:30;;;;;;;38.10;12.80;;;-2.00;99.90;;;;;;5014500;28;20835;-65
2024/01/14 10:08:58;;;;;;;73.53;19.90;;;-1.90;99.90;;;;;;4983418;28;20536;-65
2024/01/14 10:11:26;;;;;;;83.00;18.80;;;-1.80;99.90;;;;;;5016808;28;20488;-65
2024/01/14 10:13:53;;;;;;;43.00;16.07;;;-1.80;99.90;;;;;;4999255;28;20573;-64
2024/01/14 10:16:21;;;;;;;77.97;20.67;;;-1.90;99.90;;;;;;4996371;28;20492;-65
2024/01/14 10:18:49;;;;;;;86.93;24.47;;;-1.90;99.90;;;;;;4996494;28;20497;-65
2024/01/14 10:21:19;;;;;;;47.83;19.43;;;-1.90;99.90;;;;;;4997788;28;20472;-65
2024/01/14 10:23:47;;;;;;;56.33;16.97;;;-1.80;99.90;;;;;;5032131;28;20491;-65
2024/01/14 10:26:15;;;;;;;60.10;21.80;;;-1.70;99.90;;;;;;5031422;28;21018;-65
2024/01/14 10:28:42;;;;;;;89.37;24.37;;;-1.60;99.90;;;;;;4988312;28;20680;-65
2024/01/14 10:31:09;;;;;;;75.33;24.80;;;-1.50;99.90;;;;;;5005604;28;20907;-63
2024/01/14 10:33:37;;;;;;;68.37;19.03;;;-1.40;99.90;;;;;;5019612;28;20480;-63
2024/01/14 10:36:08;;;;;;;71.03;27.13;;;-1.50;99.90;;;;;;4970166;28;20503;-63
2024/01/14 10:38:36;;;;;;;65.93;20.37;;;-1.60;99.90;;;;;;4995609;28;20481;-63
2024/01/14 10:41:05;;;;;;;43.53;15.00;;;-1.70;99.90;;;;;;5001028;28;20504;-63
2024/01/14 10:43:33;;;;;;;51.10;20.50;;;-1.60;99.90;;;;;;5001901;28;20543;-63
2024/01/14 10:46:00;;;;;;;97.20;23.80;;;-1.50;99.90;;;;;;5005115;28;20476;-63
2024/01/14 10:48:29;;;;;;;57.50;21.83;;;-1.50;99.90;;;;;;5009158;28;20495;-64
2024/01/14 10:51:03;;;;;;;51.47;16.23;;;-1.50;99.90;;;;;;5006396;28;20487;-64
2024/01/14 10:53:41;;;;;;;62.50;21.20;;;-1.50;99.90;;;;;;5022915;28;20485;-63
2024/01/14 10:56:12;;;;;;;57.93;18.37;;;-1.50;99.90;;;;;;4994948;28;20482;-64
2024/01/14 10:58:42;;;;;;;61.60;21.00;;;-1.50;99.90;;;;;;5001257;28;20863;-64
2024/01/14 11:01:13;;;;;;;101.50;30.97;;;-1.60;99.90;;;;;;5023567;28;20527;-65
2024/01/14 11:03:40;;;;;;;59.13;22.13;;;-1.60;99.90;;;;;;5015749;28;20480;-65
2024/01/14 11:06:08;;;;;;;86.57;27.20;;;-1.80;99.90;;;;;;5011379;28;20877;-65
2024/01/14 11:08:37;;;;;;;74.53;27.83;;;-1.90;99.90;;;;;;5030326;28;21028;-64
2024/01/14 11:11:05;;;;;;;103.43;29.30;;;;;;;;;;4998730;28;20482;-64
2024/01/14 11:13:43;;;;;;;95.63;29.13;;;-2.00;99.90;;;;;;5023278;28;20606;-64
2024/01/14 11:16:16;;;;;;;32.87;10.60;;;-2.00;99.90;;;;;;5014880;28;20467;-65
2024/01/14 11:18:50;;;;;;;74.43;23.77;;;-2.10;99.90;;;;;;5007797;28;20542;-64
2024/01/14 11:21:26;;;;;;;49.50;11.90;;;-2.10;99.90;;;;;;4964843;28;20484;-65
2024/01/14 11:23:53;;;;;;;67.60;22.50;;;-2.10;99.90;;;;;;5008627;28;21394;-64
2024/01/14 11:26:21;;;;;;;90.17;28.93;;;-2.20;99.90;;;;;;5027856;28;20483;-64
2024/01/14 11:28:49;;;;;;;103.50;35.87;;;-2.40;99.90;;;;;;5026926;28;20483;-64
2024/01/14 11:31:17;;;;;;;115.77;36.90;;;-2.40;99.90;;;;;;4997494;28;20476;-64
2024/01/14 11:33:46;;;;;;;73.53;20.90;;;-2.50;99.90;;;;;;5014979;28;20909;-64
2024/01/14 11:36:14;;;;;;;83.10;25.23;;;-2.40;99.90;;;;;;4982176;28;20482;-64
2024/01/14 11:38:56;;;;;;;97.40;26.77;;;-2.50;99.90;;;;;;5011995;28;20598;-64
2024/01/14 11:41:29;;;;;;;75.20;25.83;;;-2.50;99.90;;;;;;4982489;28;20584;-63
2024/01/14 11:44:03;;;;;;;125.73;35.90;;;-2.60;99.90;;;;;;5017429;28;20520;-63
2024/01/14 11:46:35;;;;;;;85.33;29.50;;;-2.60;99.90;;;;;;5010795;28;20538;-63
2024/01/14 11:49:03;;;;;;;122.90;40.07;;;-2.80;99.90;;;;;;4987167;28;20504;-63
2024/01/14 11:51:32;;;;;;;89.30;29.27;;;-2.70;99.90;;;;;;5031569;28;20476;-62
2024/01/14 11:54:00;;;;;;;120.87;35.73;;;-2.90;99.90;;;;;;4971406;28;20477;-63
2024/01/14 11:56:31;;;;;;;77.90;24.43;;;-2.80;99.90;;;;;;5001933;28;20729;-62
2024/01/14 11:59:01;;;;;;;47.37;12.73;;;-2.80;99.90;;;;;;5010017;28;20488;-63
2024/01/14 12:01:32;;;;;;;81.63;23.17;;;-2.50;99.90;;;;;;5010984;28;20884;-63
2024/01/14 12:04:03;;;;;;;103.83;28.40;;;-2.50;99.90;;;;;;4977098;28;20556;-63
2024/01/14 12:06:37;;;;;;;112.53;32.77;;;-2.60;99.90;;;;;;5009674;28;20551;-63
2024/01/14 12:09:06;;;;;;;86.30;26.60;;;-2.60;99.90;;;;;;5005626;28;20498;-63
2024/01/14 12:11:34;;;;;;;101.33;32.47;;;-2.70;99.90;;;;;;5001007;28;20477;-63
2024/01/14 12:14:04;;;;;;;96.97;30.17;;;-2.60;99.90;;;;;;4977558;28;20556;-63
2024/01/14 12:16:32;;;;;;;97.93;26.20;;;-2.50;99.90;;;;;;4995691;28;20896;-62
2024/01/14 12:19:00;;;;;;;63.40;19.77;;;-2.40;99.90;;;;;;4998351;28;20584;-63
2024/01/14 12:21:28;;;;;;;55.80;19.73;;;-2.40;99.90;;;;;;4953844;28;20556;-63
2024/01/14 12:23:55;;;;;;;74.63;26.10;;;-2.30;99.90;;;;;;5008441;28;20468;-63
2024/01/14 12:26:23;;;;;;;109.07;35.37;;;-2.30;99.90;;;;;;5014308;28;20500;-63
2024/01/14 12:28:50;;;;;;;95.43;32.10;;;-2.70;99.90;;;;;;4975735;28;21269;-63
2024/01/14 12:31:24;;;;;;;85.70;28.53;;;-2.80;99.90;;;;;;4939407;28;20864;-63